createdAt,value
2018-12-10T00:01:39.406Z,2.63
2018-12-10T00:04:07.862Z,4.60
2018-12-10T00:06:36.262Z,2.97
2018-12-10T00:09:06.450Z,3.77
2018-12-10T00:11:34.823Z,2.50
2018-12-10T00:14:03.251Z,2.70
2018-12-10T00:16:31.737Z,3.27
2018-12-10T00:19:00.139Z,2.17
2018-12-10T00:21:29.133Z,2.90
2018-12-10T00:23:57.481Z,3.90
2018-12-10T00:26:25.951Z,5.30
2018-12-10T00:28:54.922Z,4.00
2018-12-10T00:31:23.342Z,3.23
2018-12-10T00:33:51.811Z,4.70
2018-12-10T00:36:20.175Z,2.37
2018-12-10T00:38:50.310Z,5.03
2018-12-10T00:41:18.681Z,4.70
2018-12-10T00:43:47.062Z,4.10
2018-12-10T00:46:15.421Z,4.73
2018-12-10T00:48:43.789Z,7.37
2018-12-10T00:51:12.195Z,9.43
2018-12-10T00:53:40.652Z,5.73
2018-12-10T00:56:09.061Z,5.47
2018-12-10T00:58:37.641Z,7.00
2018-12-10T01:01:06.334Z,4.93
2018-12-10T01:03:36.066Z,7.93
2018-12-10T01:06:04.892Z,7.37
2018-12-10T01:08:33.888Z,4.03
2018-12-10T01:11:04.609Z,6.00
2018-12-10T01:13:32.957Z,7.77
2018-12-10T01:16:02.130Z,4.53
2018-12-10T01:18:30.589Z,5.70
2018-12-10T01:21:00.427Z,3.20
2018-12-10T01:23:28.915Z,7.13
2018-12-10T01:25:57.331Z,2.07
2018-12-10T01:28:25.720Z,2.60
2018-12-10T01:30:54.133Z,6.43
2018-12-10T01:33:22.523Z,2.53
2018-12-10T01:35:50.963Z,4.83
2018-12-10T01:38:20.111Z,1.53
2018-12-10T01:40:48.434Z,3.83
2018-12-10T01:43:16.867Z,4.83
2018-12-10T01:45:45.269Z,4.63
2018-12-10T01:48:13.659Z,2.30
2018-12-10T01:50:42.059Z,6.97
2018-12-10T01:53:10.917Z,2.97
2018-12-10T01:55:39.328Z,3.10
2018-12-10T01:58:08.037Z,2.70
2018-12-10T02:00:40.354Z,5.93
2018-12-10T02:03:08.765Z,3.27
2018-12-10T02:05:37.457Z,5.77
2018-12-10T02:08:07.988Z,2.47
2018-12-10T02:10:36.425Z,4.43
2018-12-10T02:13:04.856Z,4.50
2018-12-10T02:15:33.206Z,4.83
2018-12-10T02:18:03.039Z,2.00
2018-12-10T02:20:32.435Z,4.17
2018-12-10T02:23:00.893Z,2.60
2018-12-10T02:25:29.298Z,5.60
2018-12-10T02:27:58.606Z,10.70
2018-12-10T02:30:27.002Z,6.43
2018-12-10T02:32:55.378Z,3.40
2018-12-10T02:35:23.760Z,11.73
2018-12-10T02:37:52.232Z,6.87
2018-12-10T02:40:21.270Z,6.30
2018-12-10T02:42:49.956Z,9.27
2018-12-10T02:45:19.047Z,7.13
2018-12-10T02:47:47.424Z,5.23
2018-12-10T02:50:15.854Z,5.03
2018-12-10T02:52:44.275Z,9.37
2018-12-10T02:55:12.676Z,6.50
2018-12-10T02:57:41.081Z,4.73
2018-12-10T03:00:09.513Z,4.63
2018-12-10T03:02:37.936Z,8.10
2018-12-10T03:05:06.329Z,4.43
2018-12-10T03:07:34.822Z,7.40
2018-12-10T03:10:04.571Z,4.00
2018-12-10T03:12:33.043Z,3.60
2018-12-10T03:15:01.717Z,4.67
2018-12-10T03:17:30.242Z,12.57
2018-12-10T03:19:58.744Z,7.40
2018-12-10T03:22:27.184Z,3.63
2018-12-10T03:24:55.594Z,6.47
2018-12-10T03:27:23.988Z,3.93
2018-12-10T03:29:52.410Z,4.30
2018-12-10T03:32:21.201Z,3.83
2018-12-10T03:34:49.627Z,4.30
2018-12-10T03:37:18.065Z,9.67
2018-12-10T03:39:46.455Z,5.90
2018-12-10T03:42:14.899Z,6.13
2018-12-10T03:44:43.357Z,3.20
2018-12-10T03:47:11.745Z,4.60
2018-12-10T03:49:40.781Z,5.57
2018-12-10T03:52:09.281Z,2.23
2018-12-10T03:54:37.651Z,6.50
2018-12-10T03:57:06.046Z,5.50
2018-12-10T03:59:34.432Z,1.80
2018-12-10T04:02:02.787Z,4.23
2018-12-10T04:04:31.273Z,2.77
2018-12-10T04:06:59.661Z,12.97
2018-12-10T04:09:28.062Z,3.47
2018-12-10T04:11:56.515Z,6.50
2018-12-10T04:14:24.887Z,6.40
2018-12-10T04:16:53.262Z,7.90
2018-12-10T04:19:21.722Z,7.37
2018-12-10T04:21:50.261Z,6.93
2018-12-10T04:24:18.863Z,3.40
2018-12-10T04:26:47.305Z,2.47
2018-12-10T04:29:15.688Z,4.57
2018-12-10T04:31:44.119Z,9.17
2018-12-10T04:34:12.569Z,3.30
2018-12-10T04:36:40.928Z,4.50
2018-12-10T04:39:09.378Z,2.40
2018-12-10T04:41:37.799Z,5.27
2018-12-10T04:44:06.224Z,7.87
2018-12-10T04:46:34.612Z,5.70
2018-12-10T04:49:03.013Z,1.93
2018-12-10T04:51:31.396Z,2.63
2018-12-10T04:54:00.006Z,1.57
2018-12-10T04:56:28.411Z,5.00
2018-12-10T04:58:56.785Z,8.43
2018-12-10T05:01:25.219Z,6.93
2018-12-10T05:03:53.938Z,5.93
2018-12-10T05:06:22.699Z,3.37
2018-12-10T05:08:51.163Z,5.73
2018-12-10T05:11:19.908Z,11.80
2018-12-10T05:13:48.337Z,2.63
2018-12-10T05:16:16.924Z,5.23
2018-12-10T05:18:45.321Z,7.33
2018-12-10T05:21:13.733Z,3.17
2018-12-10T05:23:42.416Z,6.13
2018-12-10T05:26:10.882Z,5.30
2018-12-10T05:28:39.273Z,11.93
2018-12-10T05:31:07.801Z,8.10
2018-12-10T05:33:36.194Z,4.70
2018-12-10T05:36:04.587Z,4.33
2018-12-10T05:38:33.056Z,5.63
2018-12-10T05:41:01.482Z,3.60
2018-12-10T05:43:29.910Z,6.60
2018-12-10T05:45:58.387Z,4.47
2018-12-10T05:48:26.774Z,5.07
2018-12-10T05:50:55.178Z,5.20
2018-12-10T05:53:23.582Z,7.83
2018-12-10T05:55:52.910Z,5.00
2018-12-10T05:58:21.484Z,3.77
2018-12-10T06:00:50.842Z,4.93
2018-12-10T06:03:20.148Z,13.30
2018-12-10T06:05:48.849Z,13.23
2018-12-10T06:08:17.340Z,7.90
2018-12-10T06:10:45.807Z,12.13
2018-12-10T06:13:14.348Z,10.30
2018-12-10T06:15:42.767Z,7.17
2018-12-10T06:18:12.135Z,19.73
2018-12-10T06:20:40.622Z,9.50
2018-12-10T06:23:09.055Z,13.53
2018-12-10T06:25:37.444Z,11.30
2018-12-10T06:28:05.814Z,11.70
2018-12-10T06:30:34.229Z,7.80
2018-12-10T06:33:02.732Z,13.83
2018-12-10T06:35:31.233Z,19.40
2018-12-10T06:37:59.720Z,12.13
2018-12-10T06:40:28.097Z,11.50
2018-12-10T06:42:56.559Z,14.20
2018-12-10T06:45:24.973Z,15.87
2018-12-10T06:47:53.328Z,18.00
2018-12-10T06:50:21.805Z,23.23
2018-12-10T06:52:50.223Z,16.80
2018-12-10T06:55:18.665Z,20.20
2018-12-10T06:57:47.113Z,16.43
2018-12-10T07:00:15.533Z,17.93
2018-12-10T07:02:43.861Z,18.83
2018-12-10T07:05:12.825Z,17.10
2018-12-10T07:07:41.234Z,13.90
2018-12-10T07:10:09.787Z,19.17
2018-12-10T07:12:38.197Z,18.20
2018-12-10T07:15:06.884Z,19.27
2018-12-10T07:17:35.801Z,18.00
2018-12-10T07:20:04.848Z,16.83
2018-12-10T07:22:34.846Z,18.57
2018-12-10T07:25:03.280Z,21.57
2018-12-10T07:27:31.745Z,18.97
2018-12-10T07:30:00.606Z,19.83
2018-12-10T07:32:29.859Z,19.60
2018-12-10T07:34:58.222Z,20.40
2018-12-10T07:37:26.668Z,21.70
2018-12-10T07:39:55.037Z,14.37
2018-12-10T07:42:23.555Z,14.67
2018-12-10T07:44:52.025Z,29.77
2018-12-10T07:47:20.404Z,27.07
2018-12-10T07:49:48.808Z,24.00
2018-12-10T07:52:17.188Z,14.43
2018-12-10T07:54:45.602Z,12.47
2018-12-10T07:57:14.015Z,9.83
2018-12-10T07:59:42.470Z,15.37
2018-12-10T08:02:10.977Z,16.57
2018-12-10T08:04:39.401Z,11.20
2018-12-10T08:07:07.871Z,9.17
2018-12-10T08:09:36.353Z,11.10
2018-12-10T08:12:04.805Z,8.00
2018-12-10T08:14:33.199Z,6.07
2018-12-10T08:17:01.784Z,8.83
2018-12-10T08:19:30.209Z,5.27
2018-12-10T08:21:58.615Z,20.97
2018-12-10T08:24:26.979Z,25.13
2018-12-10T08:26:55.311Z,7.70
2018-12-10T08:29:23.705Z,6.73
2018-12-10T08:31:52.063Z,8.70
2018-12-10T08:34:20.515Z,4.80
2018-12-10T08:36:49.200Z,6.40
2018-12-10T08:39:17.602Z,8.60
2018-12-10T08:41:46.206Z,6.43
2018-12-10T08:44:14.628Z,6.60
2018-12-10T08:46:43.170Z,8.90
2018-12-10T08:49:11.731Z,8.20
2018-12-10T08:51:40.267Z,9.40
2018-12-10T08:54:08.924Z,8.57
2018-12-10T08:56:37.472Z,9.77
2018-12-10T08:59:06.013Z,7.47
2018-12-10T09:01:34.502Z,13.43
2018-12-10T09:04:03.027Z,9.40
2018-12-10T09:06:31.506Z,5.00
2018-12-10T09:09:00.044Z,9.17
2018-12-10T09:11:28.572Z,8.50
2018-12-10T09:13:57.063Z,11.73
2018-12-10T09:16:25.632Z,9.30
2018-12-10T09:18:54.115Z,9.63
2018-12-10T09:21:22.547Z,6.80
2018-12-10T09:23:50.981Z,10.63
2018-12-10T09:26:19.401Z,10.97
2018-12-10T09:28:47.939Z,10.60
2018-12-10T09:31:16.376Z,9.73
2018-12-10T09:33:44.822Z,11.73
2018-12-10T09:36:13.544Z,13.10
2018-12-10T09:38:41.949Z,13.77
2018-12-10T09:41:10.454Z,11.70
2018-12-10T09:43:38.883Z,13.93
2018-12-10T09:46:08.157Z,13.90
2018-12-10T09:48:36.528Z,16.20
2018-12-10T09:51:05.009Z,14.07
2018-12-10T09:53:33.489Z,16.43
2018-12-10T09:56:01.863Z,16.47
2018-12-10T09:58:30.209Z,17.10
2018-12-10T10:00:58.597Z,17.53
2018-12-10T10:03:26.970Z,19.03
2018-12-10T10:05:56.257Z,23.23
2018-12-10T10:08:24.603Z,14.70
2018-12-10T10:10:53.007Z,22.47
2018-12-10T10:13:21.367Z,19.67
2018-12-10T10:15:49.711Z,9.30
2018-12-10T10:18:19.162Z,5.60
2018-12-10T10:20:47.553Z,8.30
2018-12-10T10:23:15.972Z,7.10
2018-12-10T10:25:44.306Z,7.10
2018-12-10T10:28:12.628Z,7.60
2018-12-10T10:30:43.999Z,7.63
2018-12-10T10:33:11.391Z,15.13
2018-12-10T10:35:40.449Z,13.00
2018-12-10T10:38:08.864Z,10.30
2018-12-10T10:40:37.261Z,11.50
2018-12-10T10:43:05.669Z,7.83
2018-12-10T10:45:34.862Z,17.23
2018-12-10T10:48:03.526Z,27.93
2018-12-10T10:50:31.929Z,7.30
2018-12-10T10:53:00.300Z,4.90
2018-12-10T10:55:29.059Z,11.00
2018-12-10T10:57:57.448Z,7.07
2018-12-10T11:00:31.177Z,7.03
2018-12-10T11:03:04.665Z,5.43
2018-12-10T11:05:34.674Z,8.13
2018-12-10T11:08:03.156Z,5.43
2018-12-10T11:10:31.625Z,14.00
2018-12-10T11:13:00.159Z,21.27
2018-12-10T11:15:28.639Z,11.60
2018-12-10T11:17:57.071Z,7.63
2018-12-10T11:20:25.523Z,6.07
2018-12-10T11:22:54.014Z,5.40
2018-12-10T11:25:22.817Z,10.53
2018-12-10T11:27:53.347Z,7.40
2018-12-10T11:30:25.630Z,6.30
2018-12-10T11:32:54.882Z,5.93
2018-12-10T11:35:26.684Z,7.30
2018-12-10T11:37:55.623Z,9.40
2018-12-10T11:40:24.254Z,6.97
2018-12-10T11:42:54.033Z,9.57
2018-12-10T11:45:22.525Z,4.30
2018-12-10T11:47:50.950Z,5.53
2018-12-10T11:50:19.656Z,5.70
2018-12-10T11:52:48.220Z,6.47
2018-12-10T11:55:17.392Z,4.93
2018-12-10T11:57:45.802Z,4.17
2018-12-10T12:00:14.153Z,8.07
2018-12-10T12:02:42.528Z,4.43
2018-12-10T12:05:10.938Z,5.30
2018-12-10T12:07:39.336Z,4.27
2018-12-10T12:10:08.730Z,8.40
2018-12-10T12:12:51.856Z,7.70
2018-12-10T12:15:20.457Z,8.50
2018-12-10T12:17:48.970Z,3.20
2018-12-10T12:20:21.523Z,5.27
2018-12-10T12:22:52.004Z,6.00
2018-12-10T12:25:20.413Z,3.47
2018-12-10T12:27:48.808Z,6.07
2018-12-10T12:30:17.252Z,6.80
2018-12-10T12:32:47.937Z,21.90
2018-12-10T12:35:16.482Z,8.73
2018-12-10T12:37:44.935Z,5.50
2018-12-10T12:40:14.934Z,6.40
2018-12-10T12:42:44.464Z,9.23
2018-12-10T12:45:12.943Z,3.03
2018-12-10T12:47:41.434Z,6.47
2018-12-10T12:50:09.815Z,18.83
2018-12-10T12:52:38.993Z,11.37
2018-12-10T12:55:07.418Z,26.50
2018-12-10T12:57:37.167Z,8.60
2018-12-10T13:00:05.678Z,11.07
2018-12-10T13:02:38.466Z,8.83
2018-12-10T13:05:07.094Z,5.43
2018-12-10T13:07:35.436Z,4.50
2018-12-10T13:10:06.837Z,7.40
2018-12-10T13:12:35.575Z,3.30
2018-12-10T13:15:04.167Z,3.63
2018-12-10T13:17:32.634Z,4.73
2018-12-10T13:20:01.016Z,5.33
2018-12-10T13:22:34.022Z,6.97
2018-12-10T13:25:04.109Z,3.80
2018-12-10T13:27:32.543Z,5.10
2018-12-10T13:30:03.597Z,2.90
2018-12-10T13:32:32.213Z,6.33
2018-12-10T13:35:00.696Z,4.40
2018-12-10T13:37:32.297Z,8.63
2018-12-10T13:40:00.763Z,5.27
2018-12-10T13:42:30.692Z,9.80
2018-12-10T13:44:59.941Z,5.60
2018-12-10T13:47:29.275Z,9.67
2018-12-10T13:49:57.698Z,3.83
2018-12-10T13:52:26.763Z,3.53
2018-12-10T13:54:55.918Z,6.03
2018-12-10T13:57:24.351Z,7.50
2018-12-10T13:59:53.758Z,7.47
2018-12-10T14:02:23.560Z,2.83
2018-12-10T14:05:07.712Z,3.90
2018-12-10T14:07:38.947Z,3.43
2018-12-10T14:10:07.422Z,3.60
2018-12-10T14:12:37.851Z,2.57
2018-12-10T14:15:08.144Z,6.43
2018-12-10T14:17:36.594Z,5.17
2018-12-10T14:20:07.025Z,5.67
2018-12-10T14:22:35.480Z,4.63
2018-12-10T14:25:04.952Z,3.23
2018-12-10T14:27:35.644Z,3.83
2018-12-10T14:30:06.498Z,3.60
2018-12-10T14:32:35.110Z,5.80
2018-12-10T14:35:03.636Z,4.63
2018-12-10T14:37:31.971Z,6.60
2018-12-10T14:40:00.348Z,2.53
2018-12-10T14:42:29.195Z,6.70
2018-12-10T14:47:35.160Z,3.77
2018-12-10T14:50:07.048Z,4.37
2018-12-10T14:52:39.086Z,4.67
2018-12-10T14:55:08.040Z,3.63
2018-12-10T14:57:40.087Z,2.23
2018-12-10T15:00:09.873Z,4.80
2018-12-10T15:02:38.392Z,10.50
2018-12-10T15:05:08.119Z,23.43
2018-12-10T15:07:36.583Z,18.67
2018-12-10T15:10:14.610Z,22.43
2018-12-10T15:15:38.241Z,25.80
2018-12-10T15:18:06.739Z,36.17
2018-12-10T15:20:35.832Z,43.00
2018-12-10T15:23:05.888Z,16.90
2018-12-10T15:28:09.513Z,16.53
2018-12-10T15:30:38.082Z,10.87
2018-12-10T15:33:06.699Z,11.17
2018-12-10T15:35:35.544Z,10.90
2018-12-10T15:38:03.992Z,10.77
2018-12-10T15:40:32.502Z,6.90
2018-12-10T15:43:08.848Z,22.57
2018-12-10T15:45:50.488Z,3.50
2018-12-10T15:48:41.091Z,4.90
2018-12-10T15:51:28.194Z,3.13
2018-12-10T15:53:57.647Z,2.80
2018-12-10T15:56:26.167Z,2.50
2018-12-10T15:58:54.687Z,2.20
2018-12-10T16:01:23.165Z,3.30
2018-12-10T16:03:52.447Z,5.13
2018-12-10T16:06:21.046Z,6.03
2018-12-10T16:08:49.556Z,2.87
2018-12-10T16:11:18.827Z,8.00
2018-12-10T16:13:47.226Z,3.20
2018-12-10T16:16:15.625Z,6.00
2018-12-10T16:18:44.014Z,3.17
2018-12-10T16:21:12.446Z,4.27
2018-12-10T16:23:40.884Z,7.70
2018-12-10T16:26:09.351Z,7.43
2018-12-10T16:28:37.732Z,4.70
2018-12-10T16:31:06.259Z,37.50
2018-12-10T16:33:35.480Z,7.40
2018-12-10T16:36:03.919Z,16.60
2018-12-10T16:38:32.346Z,4.23
2018-12-10T16:41:01.650Z,7.30
2018-12-10T16:43:30.428Z,9.40
2018-12-10T16:45:58.935Z,24.70
2018-12-10T16:48:27.778Z,18.97
2018-12-10T16:50:56.298Z,45.20
2018-12-10T16:53:25.250Z,16.60
2018-12-10T16:55:53.811Z,30.47
2018-12-10T16:58:23.386Z,12.73
2018-12-10T17:00:58.659Z,20.63
2018-12-10T17:03:28.117Z,47.17
2018-12-10T17:05:57.474Z,23.17
2018-12-10T17:08:25.885Z,15.13
2018-12-10T17:10:54.342Z,29.20
2018-12-10T17:13:22.823Z,5.53
2018-12-10T17:15:51.186Z,11.60
2018-12-10T17:18:19.633Z,16.03
2018-12-10T17:20:48.104Z,4.20
2018-12-10T17:23:16.479Z,8.07
2018-12-10T17:25:44.928Z,10.07
2018-12-10T17:28:13.404Z,3.03
2018-12-10T17:30:41.831Z,7.73
2018-12-10T17:33:10.835Z,10.00
2018-12-10T17:35:39.292Z,17.27
2018-12-10T17:38:07.810Z,7.67
2018-12-10T17:40:36.258Z,15.67
2018-12-10T17:43:04.648Z,20.13
2018-12-10T17:45:33.093Z,10.50
2018-12-10T17:48:01.482Z,8.13
2018-12-10T17:50:30.541Z,7.20
2018-12-10T17:52:58.943Z,6.57
2018-12-10T17:55:27.920Z,6.90
2018-12-10T17:57:56.333Z,9.50
2018-12-10T18:00:24.845Z,6.53
2018-12-10T18:02:53.225Z,8.00
2018-12-10T18:05:22.574Z,6.90
2018-12-10T18:07:51.011Z,10.47
2018-12-10T18:10:19.452Z,18.30
2018-12-10T18:12:47.994Z,21.10
2018-12-10T18:15:16.424Z,18.70
2018-12-10T18:17:44.919Z,35.47
2018-12-10T18:20:13.377Z,42.17
2018-12-10T18:22:41.906Z,20.50
2018-12-10T18:25:11.366Z,21.27
2018-12-10T18:27:39.811Z,30.40
2018-12-10T18:30:15.761Z,20.07
2018-12-10T18:32:45.621Z,21.10
2018-12-10T18:35:14.383Z,31.63
2018-12-10T18:37:42.854Z,27.17
2018-12-10T18:40:12.702Z,9.87
2018-12-10T18:42:41.130Z,7.13
2018-12-10T18:45:13.680Z,8.37
2018-12-10T18:47:42.201Z,6.13
2018-12-10T18:50:10.671Z,9.17
2018-12-10T18:52:39.144Z,8.00
2018-12-10T18:55:07.548Z,6.20
2018-12-10T18:57:35.949Z,13.47
2018-12-10T19:00:07.349Z,13.67
2018-12-10T19:02:35.948Z,5.23
2018-12-10T19:05:04.573Z,9.27
2018-12-10T19:07:33.021Z,8.10
2018-12-10T19:10:01.474Z,15.17
2018-12-10T19:12:30.322Z,23.60
2018-12-10T19:15:00.377Z,17.23
2018-12-10T19:17:28.760Z,34.37
2018-12-10T19:19:57.156Z,13.90
2018-12-10T19:22:26.519Z,39.43
2018-12-10T19:24:55.025Z,14.00
2018-12-10T19:27:23.528Z,23.07
2018-12-10T19:29:52.028Z,14.43
2018-12-10T19:32:20.436Z,8.73
2018-12-10T19:34:48.950Z,8.23
2018-12-10T19:37:17.651Z,13.97
2018-12-10T19:39:46.284Z,7.33
2018-12-10T19:42:14.739Z,6.47
2018-12-10T19:44:43.988Z,13.80
2018-12-10T19:47:12.408Z,6.77
2018-12-10T19:49:40.810Z,10.40
2018-12-10T19:52:09.270Z,7.03
2018-12-10T19:54:37.643Z,14.93
2018-12-10T19:57:06.062Z,10.00
2018-12-10T19:59:34.560Z,8.63
2018-12-10T20:02:03.421Z,13.10
2018-12-10T20:04:31.860Z,11.40
2018-12-10T20:07:07.365Z,11.17
2018-12-10T20:09:36.047Z,9.60
2018-12-10T20:12:05.006Z,11.30
2018-12-10T20:14:36.212Z,8.47
2018-12-10T20:17:04.849Z,8.80
2018-12-10T20:19:34.055Z,7.63
2018-12-10T20:22:02.699Z,10.17
2018-12-10T20:24:31.449Z,15.03
2018-12-10T20:27:00.629Z,5.43
2018-12-10T20:29:29.886Z,7.57
2018-12-10T20:32:02.041Z,12.67
2018-12-10T20:34:35.835Z,13.47
2018-12-10T20:37:11.532Z,14.73
2018-12-10T20:39:42.864Z,11.23
2018-12-10T20:42:11.514Z,11.30
2018-12-10T20:44:40.072Z,10.33
2018-12-10T20:47:08.731Z,11.33
2018-12-10T20:49:37.379Z,12.20
2018-12-10T20:52:05.949Z,5.40
2018-12-10T20:54:34.689Z,8.77
2018-12-10T20:57:03.415Z,6.30
2018-12-10T20:59:33.146Z,12.33
2018-12-10T21:02:03.149Z,6.87
2018-12-10T21:04:32.867Z,14.53
2018-12-10T21:07:01.521Z,4.87
2018-12-10T21:09:30.176Z,11.37
2018-12-10T21:11:59.276Z,10.57
2018-12-10T21:14:27.930Z,4.23
2018-12-10T21:16:56.858Z,9.43
2018-12-10T21:19:26.027Z,5.07
2018-12-10T21:21:55.795Z,9.43
2018-12-10T21:24:28.054Z,5.43
2018-12-10T21:26:56.787Z,6.73
2018-12-10T21:29:25.332Z,7.97
2018-12-10T21:31:53.862Z,7.23
2018-12-10T21:34:22.395Z,5.83
2018-12-10T21:36:51.695Z,3.90
2018-12-10T21:39:20.859Z,6.20
2018-12-10T21:41:49.325Z,18.30
2018-12-10T22:03:08.571Z,17.03
2018-12-10T22:05:37.015Z,7.90
2018-12-10T22:08:06.853Z,9.07
2018-12-10T22:10:35.252Z,7.37
2018-12-10T22:13:03.601Z,10.77
2018-12-10T22:15:32.111Z,11.83
2018-12-10T22:18:01.031Z,9.73
2018-12-10T22:20:29.488Z,5.33
2018-12-10T22:28:44.125Z,7.80
2018-12-10T22:31:12.602Z,8.10
2018-12-10T22:33:40.983Z,3.13
2018-12-10T22:39:20.207Z,7.60
2018-12-10T22:41:48.876Z,5.33
2018-12-10T22:44:17.454Z,5.97
2018-12-10T22:46:46.023Z,6.20
2018-12-10T22:49:14.518Z,13.20
2018-12-10T22:51:42.950Z,5.90
2018-12-10T22:54:11.372Z,5.00
2018-12-10T22:56:39.858Z,7.07
2018-12-10T22:59:08.313Z,9.40
2018-12-10T23:01:36.749Z,6.87
2018-12-10T23:04:05.739Z,5.63
2018-12-10T23:12:30.304Z,7.53
2018-12-10T23:17:51.441Z,8.70
2018-12-10T23:20:19.937Z,12.77
2018-12-10T23:22:49.356Z,11.43
2018-12-10T23:25:18.895Z,8.20
2018-12-10T23:27:47.413Z,5.93
2018-12-10T23:30:15.904Z,6.70
2018-12-10T23:32:44.355Z,5.90
2018-12-10T23:35:12.815Z,4.90
2018-12-10T23:37:41.176Z,5.43
2018-12-10T23:40:10.227Z,4.60
2018-12-10T23:49:00.545Z,7.10
2018-12-10T23:51:30.147Z,13.30
2018-12-10T23:53:58.465Z,4.73
2018-12-10T23:56:26.838Z,7.07
2018-12-10T23:58:55.394Z,7.10
